Time;durP1;ratioP1;P1;durP2;ratioP2;P2;SDS_P1;SDS_P2;PMS_P1;PMS_P2;Temp;Humidity;BMP_temperature;BMP_pressure;BME280_temperature;BME280_humidity;BME280_pressure;Samples;Min_cycle;Max_cycle;Signal;HPM_P1;HPM_P2
2022/11/02 00:00:55;;;;;;;1.60;0.70;;;22.10;45.90;;;;;;5055512;28;20029;-57
2022/11/02 00:03:21;;;;;;;2.42;0.82;;;22.20;45.90;;;;;;5054645;28;20437;-52
2022/11/02 00:05:47;;;;;;;3.83;1.20;;;22.20;45.90;;;;;;5054907;28;20040;-56
2022/11/02 00:08:13;;;;;;;2.53;0.82;;;22.10;45.80;;;;;;5055767;28;20040;-56
2022/11/02 00:10:39;;;;;;;3.63;0.90;;;22.20;45.80;;;;;;5052735;28;20017;-55
2022/11/02 00:13:04;;;;;;;2.65;0.80;;;22.10;45.80;;;;;;5051307;28;20110;-54
2022/11/02 00:15:33;;;;;;;2.78;1.05;;;22.10;45.80;;;;;;5051643;28;20025;-54
2022/11/02 00:18:03;;;;;;;4.38;1.10;;;22.10;45.70;;;;;;5053616;28;20124;-57
2022/11/02 00:20:30;;;;;;;3.00;1.00;;;22.10;45.70;;;;;;5052583;28;20437;-58
2022/11/02 00:22:59;;;;;;;2.25;0.95;;;22.10;45.70;;;;;;5052165;28;22044;-55
2022/11/02 00:25:26;;;;;;;2.72;0.98;;;22.10;45.90;;;;;;5050158;28;20040;-56
2022/11/02 00:27:52;;;;;;;3.55;1.00;;;22.10;46.00;;;;;;5053114;28;20100;-51
2022/11/02 00:30:18;;;;;;;3.42;0.90;;;22.10;45.90;;;;;;5051176;28;20032;-55
2022/11/02 00:32:44;;;;;;;2.90;0.90;;;22.10;45.90;;;;;;5051235;28;20515;-54
2022/11/02 00:35:10;;;;;;;2.70;0.88;;;22.10;45.90;;;;;;5049831;28;20032;-56
2022/11/02 00:37:36;;;;;;;2.65;0.85;;;22.10;45.90;;;;;;5051809;28;20432;-56
2022/11/02 00:40:04;;;;;;;2.17;0.90;;;22.10;46.00;;;;;;5052417;28;20037;-53
2022/11/02 00:42:29;;;;;;;3.03;0.80;;;22.10;46.00;;;;;;5051359;28;20025;-53
2022/11/02 00:44:56;;;;;;;1.92;0.75;;;22.10;46.00;;;;;;5050606;28;20579;-55
2022/11/02 00:47:22;;;;;;;1.92;0.90;;;22.10;46.00;;;;;;5052581;28;20108;-51
2022/11/02 00:49:48;;;;;;;2.85;0.90;;;22.10;46.10;;;;;;5049411;28;20025;-54
2022/11/02 00:52:14;;;;;;;2.53;0.98;;;22.10;46.10;;;;;;5046097;28;20399;-55
2022/11/02 00:54:45;;;;;;;2.38;0.70;;;22.10;46.10;;;;;;5051338;28;20025;-57
2022/11/02 00:57:10;;;;;;;3.58;1.00;;;22.10;46.80;;;;;;5048808;28;20021;-57
2022/11/02 00:59:37;;;;;;;2.35;0.88;;;22.10;46.20;;;;;;5049657;28;20351;-53
2022/11/02 01:02:04;;;;;;;3.42;0.85;;;22.10;46.20;;;;;;5050990;28;20029;-54
2022/11/02 01:04:30;;;;;;;3.17;0.90;;;22.10;46.20;;;;;;5050804;28;20033;-56
2022/11/02 01:06:56;;;;;;;1.92;0.80;;;22.10;46.20;;;;;;5054993;28;20060;-56
2022/11/02 01:09:22;;;;;;;3.20;0.95;;;22.10;46.20;;;;;;5054511;28;20424;-55
2022/11/02 01:11:48;;;;;;;2.38;0.80;;;22.00;46.10;;;;;;5049785;28;20110;-53
2022/11/02 01:14:13;;;;;;;3.22;1.10;;;22.10;46.20;;;;;;5050334;28;20020;-53
2022/11/02 01:16:40;;;;;;;3.85;1.20;;;22.10;46.30;;;;;;5049670;28;20045;-54
2022/11/02 01:19:07;;;;;;;3.10;0.77;;;22.10;46.20;;;;;;5052587;28;20086;-55
2022/11/02 01:21:32;;;;;;;2.53;1.17;;;22.00;46.20;;;;;;5049455;28;20024;-52
2022/11/02 01:24:00;;;;;;;3.72;0.93;;;22.10;46.30;;;;;;5049513;28;20360;-56
2022/11/02 01:26:25;;;;;;;2.80;1.08;;;22.00;46.30;;;;;;5051429;28;20025;-56
2022/11/02 01:28:53;;;;;;;3.47;0.93;;;22.10;46.40;;;;;;5051159;28;20112;-56
2022/11/02 01:31:18;;;;;;;2.00;0.85;;;22.00;46.40;;;;;;5048994;28;20128;-53
2022/11/02 01:33:45;;;;;;;2.22;0.77;;;22.00;46.40;;;;;;5049690;28;20108;-53
2022/11/02 01:36:12;;;;;;;5.22;1.20;;;22.00;46.40;;;;;;5050867;28;20108;-55
2022/11/02 01:38:39;;;;;;;1.95;0.63;;;22.00;46.40;;;;;;5047771;28;20396;-57
2022/11/02 01:41:05;;;;;;;3.08;0.70;;;22.00;46.40;;;;;;5048126;28;20113;-53
2022/11/02 01:43:34;;;;;;;1.80;0.70;;;22.00;46.40;;;;;;5043333;28;20111;-55
2022/11/02 01:46:06;;;;;;;4.13;1.15;;;22.00;46.50;;;;;;5042945;28;20116;-53
2022/11/02 01:48:45;;;;;;;2.40;0.88;;;22.00;46.50;;;;;;5047463;28;20035;-53
2022/11/02 01:51:35;;;;;;;2.28;0.93;;;22.00;46.50;;;;;;5050781;28;20126;-54
2022/11/02 01:54:08;;;;;;;1.95;0.70;;;22.00;46.60;;;;;;5047017;28;20032;-55
2022/11/02 01:56:35;;;;;;;2.88;0.88;;;22.00;46.50;;;;;;5049718;28;20091;-56
2022/11/02 01:59:05;;;;;;;2.08;0.73;;;22.00;46.30;;;;;;5039339;28;20036;-54
2022/11/02 02:01:32;;;;;;;1.90;0.70;;;22.00;46.20;;;;;;5052044;28;20025;-54
2022/11/02 02:03:58;;;;;;;1.65;0.70;;;22.00;46.10;;;;;;5045880;28;20171;-55
2022/11/02 02:06:25;;;;;;;2.08;0.63;;;22.00;45.90;;;;;;5040278;28;20026;-53
2022/11/02 02:08:54;;;;;;;1.83;0.70;;;22.00;45.80;;;;;;5050649;28;20021;-53
2022/11/02 02:11:31;;;;;;;1.80;0.75;;;22.00;45.70;;;;;;5049938;28;20550;-55
2022/11/02 02:14:17;;;;;;;1.92;0.70;;;22.00;45.60;;;;;;5041183;28;20124;-56
2022/11/02 02:17:14;;;;;;;1.10;0.50;;;22.00;45.50;;;;;;5049309;28;20057;-53
2022/11/02 02:19:45;;;;;;;1.40;0.60;;;22.00;45.50;;;;;;5041228;28;20040;-56
2022/11/02 02:22:48;;;;;;;3.72;0.90;;;22.00;45.50;;;;;;5049133;28;20430;-51
2022/11/02 02:25:28;;;;;;;1.92;0.60;;;22.00;45.40;;;;;;5049732;28;21429;-52
2022/11/02 02:28:15;;;;;;;2.92;0.80;;;22.00;45.40;;;;;;5049611;28;20037;-51
2022/11/02 02:31:11;;;;;;;2.35;0.60;;;22.00;45.30;;;;;;5058205;28;20448;-55
2022/11/02 02:33:45;;;;;;;1.00;0.40;;;21.90;45.30;;;;;;5047833;28;20348;-54
2022/11/02 02:36:14;;;;;;;;;;;21.90;45.30;;;;;;5039045;28;20116;-54
2022/11/02 02:39:02;;;;;;;1.63;0.60;;;21.90;45.30;;;;;;5048635;28;20312;-54
2022/11/02 02:41:42;;;;;;;1.58;0.63;;;21.90;45.30;;;;;;5049255;28;20107;-52
2022/11/02 02:44:13;;;;;;;2.97;0.60;;;21.90;45.40;;;;;;5064322;28;20044;-58
2022/11/02 02:46:51;;;;;;;2.80;0.65;;;21.90;45.40;;;;;;5047377;28;20063;-55
2022/11/02 02:49:33;;;;;;;1.15;0.50;;;21.90;45.40;;;;;;5040146;28;20086;-53
2022/11/02 02:52:01;;;;;;;1.83;0.60;;;21.90;45.40;;;;;;5043299;28;20357;-55
2022/11/02 02:54:35;;;;;;;3.58;0.70;;;21.90;45.40;;;;;;5041587;28;20032;-57
2022/11/02 02:57:08;;;;;;;2.38;0.50;;;21.90;45.40;;;;;;5039574;28;20122;-56
2022/11/02 02:59:42;;;;;;;2.50;0.70;;;21.90;45.40;;;;;;5049041;28;20033;-55
2022/11/02 03:02:19;;;;;;;3.42;0.73;;;21.90;45.40;;;;;;5044914;28;20441;-54
2022/11/02 03:04:47;;;;;;;1.98;0.80;;;21.90;45.40;;;;;;5037834;28;20037;-54
2022/11/02 03:07:19;;;;;;;1.45;0.40;;;21.90;45.40;;;;;;5049798;28;20031;-54
2022/11/02 03:10:00;;;;;;;1.70;0.60;;;21.90;45.40;;;;;;5031897;28;20022;-55
2022/11/02 03:12:42;;;;;;;1.65;0.50;;;21.90;45.40;;;;;;5046896;28;20376;-54
2022/11/02 03:15:36;;;;;;;1.20;0.60;;;21.90;45.40;;;;;;5039904;28;20025;-55
2022/11/02 03:18:13;;;;;;;1.58;0.63;;;21.80;45.30;;;;;;5042164;28;20420;-54
2022/11/02 03:20:52;;;;;;;1.38;0.50;;;21.80;45.30;;;;;;5048125;28;20091;-54
2022/11/02 03:23:42;;;;;;;1.35;0.50;;;21.80;45.30;;;;;;5048391;28;20053;-52
2022/11/02 03:26:27;;;;;;;1.73;0.50;;;21.80;45.40;;;;;;5043803;28;20021;-53
2022/11/02 03:29:04;;;;;;;1.05;0.43;;;21.80;45.30;;;;;;5038431;28;20094;-55
2022/11/02 03:31:45;;;;;;;0.73;0.40;;;21.80;45.30;;;;;;5048607;28;20044;-55
2022/11/02 03:34:15;;;;;;;3.72;0.70;;;21.80;45.30;;;;;;5040712;28;20053;-53
2022/11/02 03:36:50;;;;;;;2.78;0.80;;;21.80;45.30;;;;;;5047819;28;20344;-55
2022/11/02 03:39:29;;;;;;;2.83;0.75;;;21.80;45.30;;;;;;5039257;28;20498;-57
2022/11/02 03:41:58;;;;;;;3.42;0.80;;;21.80;45.40;;;;;;5047311;28;20065;-57
2022/11/02 03:44:27;;;;;;;2.47;0.80;;;21.80;45.40;;;;;;5037978;28;20064;-52
2022/11/02 03:46:59;;;;;;;1.60;0.65;;;21.70;45.30;;;;;;5040691;28;20056;-53
2022/11/02 03:49:28;;;;;;;1.58;0.63;;;21.80;45.40;;;;;;5047329;28;20338;-52
2022/11/02 03:51:58;;;;;;;1.70;0.40;;;21.80;45.40;;;;;;5049972;28;20029;-56
2022/11/02 03:54:24;;;;;;;2.28;0.70;;;21.80;45.40;;;;;;5048118;28;20379;-58
2022/11/02 03:56:54;;;;;;;2.10;0.63;;;21.70;45.30;;;;;;5046137;28;20029;-50
2022/11/02 03:59:20;;;;;;;1.95;0.63;;;21.80;45.40;;;;;;5046712;28;20028;-56
2022/11/02 04:01:49;;;;;;;1.55;0.82;;;21.80;45.40;;;;;;5049726;28;20029;-54
2022/11/02 04:04:15;;;;;;;2.85;0.80;;;21.70;45.30;;;;;;5040018;28;20350;-55
2022/11/02 04:06:45;;;;;;;1.98;0.70;;;21.70;45.30;;;;;;5049786;28;20051;-49
2022/11/02 04:09:11;;;;;;;3.05;0.73;;;21.70;45.30;;;;;;5046465;28;20029;-52
2022/11/02 04:14:38;;;;;;;;;;;21.80;45.40;;;;;;5046684;28;20052;-56
2022/11/02 04:19:56;;;;;;;4.47;0.80;;;21.70;45.30;;;;;;5038748;28;20025;-52
2022/11/02 04:25:17;;;;;;;2.80;0.70;;;21.70;45.30;;;;;;5042635;28;20120;-49
2022/11/02 04:28:07;;;;;;;2.67;0.70;;;21.70;45.30;;;;;;5046818;28;20056;-54
2022/11/02 04:30:35;;;;;;;2.90;0.88;;;21.70;45.30;;;;;;5047174;28;20028;-57
2022/11/02 04:35:52;;;;;;;4.32;0.98;;;21.70;45.30;;;;;;5038663;28;20322;-52
2022/11/02 04:43:50;;;;;;;3.03;1.02;;;21.60;45.10;;;;;;5043385;28;20416;-55
2022/11/02 04:46:18;;;;;;;2.33;0.77;;;21.70;45.20;;;;;;5051037;28;20387;-53
2022/11/02 04:48:46;;;;;;;3.38;0.70;;;21.60;45.10;;;;;;5047289;28;20453;-54
2022/11/02 04:51:13;;;;;;;2.38;0.80;;;21.60;45.70;;;;;;5050685;28;20463;-51
2022/11/02 04:53:39;;;;;;;4.07;1.20;;;21.70;45.10;;;;;;5049876;28;20452;-54
2022/11/02 04:56:07;;;;;;;3.95;0.82;;;21.60;45.00;;;;;;5050142;28;20029;-55
2022/11/02 04:58:33;;;;;;;3.08;0.73;;;21.60;45.00;;;;;;5050390;28;20041;-51
2022/11/02 05:01:14;;;;;;;1.83;0.73;;;21.60;45.00;;;;;;5042564;28;20036;-56
2022/11/02 05:03:42;;;;;;;2.15;0.75;;;21.60;44.90;;;;;;5040954;28;20090;-54
2022/11/02 05:06:10;;;;;;;2.60;0.70;;;21.60;44.90;;;;;;5051557;28;20067;-52
2022/11/02 05:08:36;;;;;;;3.15;0.90;;;21.60;44.90;;;;;;5052108;28;20156;-54
2022/11/02 05:11:02;;;;;;;3.38;1.10;;;21.60;44.90;;;;;;5049876;28;20128;-55
2022/11/02 05:13:28;;;;;;;4.15;0.80;;;21.60;44.90;;;;;;5046170;28;20064;-54
2022/11/02 05:15:57;;;;;;;3.50;1.00;;;21.60;44.90;;;;;;5049224;28;20401;-54
2022/11/02 05:18:23;;;;;;;2.55;0.82;;;21.60;44.90;;;;;;5052467;28;20373;-54
2022/11/02 05:20:54;;;;;;;3.22;0.77;;;21.60;44.90;;;;;;5042774;28;20868;-57
2022/11/02 05:23:24;;;;;;;3.70;0.80;;;21.60;44.90;;;;;;5050821;28;20452;-52
2022/11/02 05:25:55;;;;;;;2.15;0.80;;;21.60;44.90;;;;;;5050026;28;20060;-57
2022/11/02 05:28:23;;;;;;;3.80;0.90;;;21.60;44.90;;;;;;5041457;28;20037;-58
2022/11/02 05:30:51;;;;;;;2.42;0.93;;;21.60;44.90;;;;;;5050973;28;20111;-56
2022/11/02 05:33:17;;;;;;;2.50;0.80;;;21.60;44.90;;;;;;5049786;28;20120;-55
2022/11/02 05:35:43;;;;;;;3.13;1.05;;;21.60;44.90;;;;;;5038864;28;20037;-54
2022/11/02 05:38:11;;;;;;;6.00;1.35;;;21.60;44.90;;;;;;5042678;28;20345;-55
2022/11/02 05:40:39;;;;;;;3.60;0.90;;;21.60;44.90;;;;;;5048385;28;20036;-54
2022/11/02 05:43:08;;;;;;;2.92;1.08;;;21.60;44.90;;;;;;5048819;28;20060;-54
2022/11/02 05:45:35;;;;;;;2.50;0.85;;;21.60;44.90;;;;;;5048287;28;20029;-56
2022/11/02 05:48:05;;;;;;;2.88;0.88;;;21.60;44.90;;;;;;5051377;28;20025;-51
2022/11/02 05:50:31;;;;;;;2.55;0.80;;;21.50;44.80;;;;;;5049202;28;20885;-55
2022/11/02 05:52:59;;;;;;;3.38;1.13;;;21.60;44.90;;;;;;5048345;28;20041;-58
2022/11/02 05:55:25;;;;;;;3.15;0.70;;;21.60;44.90;;;;;;5051468;28;20099;-53
2022/11/02 05:57:53;;;;;;;2.30;0.88;;;21.50;44.80;;;;;;5049912;28;20025;-55
2022/11/02 06:00:20;;;;;;;3.90;1.20;;;21.50;44.80;;;;;;5050770;28;20029;-55
2022/11/02 06:02:46;;;;;;;4.45;1.08;;;21.50;44.80;;;;;;5048220;28;20124;-55
2022/11/02 06:05:13;;;;;;;3.25;0.93;;;21.50;44.80;;;;;;5052265;28;20040;-54
2022/11/02 06:07:38;;;;;;;3.75;1.10;;;21.60;44.90;;;;;;5054941;28;20774;-55
2022/11/02 06:10:05;;;;;;;3.83;1.05;;;21.60;44.90;;;;;;5050093;28;20056;-55
2022/11/02 06:12:31;;;;;;;3.28;1.02;;;21.60;44.90;;;;;;5046930;28;20101;-50
2022/11/02 06:14:57;;;;;;;3.08;0.80;;;21.60;44.90;;;;;;5049425;28;20397;-55
2022/11/02 06:17:22;;;;;;;2.70;1.00;;;21.50;44.80;;;;;;5050563;28;20119;-54
2022/11/02 06:19:48;;;;;;;3.03;0.90;;;21.50;44.80;;;;;;5050644;28;20051;-53
2022/11/02 06:22:14;;;;;;;2.92;1.10;;;21.50;44.80;;;;;;5049560;28;20063;-54
2022/11/02 06:24:40;;;;;;;3.10;0.90;;;21.60;44.90;;;;;;5047510;28;20325;-55
2022/11/02 06:27:05;;;;;;;1.73;0.73;;;21.60;44.90;;;;;;5049902;28;20029;-58
2022/11/02 06:29:32;;;;;;;4.38;1.20;;;21.50;45.50;;;;;;5048069;28;20021;-52
2022/11/02 06:31:57;;;;;;;3.85;1.10;;;21.50;44.90;;;;;;5048916;28;20120;-58
2022/11/02 06:34:23;;;;;;;6.28;0.90;;;21.50;44.90;;;;;;5049908;28;20041;-56
2022/11/02 06:36:49;;;;;;;2.85;1.00;;;21.50;45.00;;;;;;5049203;28;20028;-56
2022/11/02 06:39:15;;;;;;;2.42;0.80;;;21.50;45.00;;;;;;5047809;28;20021;-58
2022/11/02 06:41:41;;;;;;;2.65;0.90;;;21.50;45.00;;;;;;5048550;28;20028;-54
2022/11/02 06:44:06;;;;;;;4.72;0.90;;;21.50;45.00;;;;;;5050043;28;20025;-54
2022/11/02 06:46:32;;;;;;;2.92;1.10;;;21.50;45.00;;;;;;5049721;28;20030;-56
2022/11/02 06:48:58;;;;;;;3.97;1.02;;;21.50;45.00;;;;;;5049247;28;20407;-56
2022/11/02 06:51:24;;;;;;;2.47;0.80;;;21.50;45.00;;;;;;5051458;28;20044;-56
2022/11/02 06:53:49;;;;;;;3.95;1.05;;;21.50;45.10;;;;;;5047448;28;20020;-56
2022/11/02 06:56:15;;;;;;;4.47;0.82;;;21.50;45.10;;;;;;5044732;28;20104;-56
2022/11/02 06:58:41;;;;;;;3.50;1.20;;;21.50;45.20;;;;;;5046811;28;20029;-58
2022/11/02 07:01:08;;;;;;;3.63;1.05;;;21.50;45.20;;;;;;5049527;28;20375;-54
2022/11/02 07:03:34;;;;;;;3.60;1.15;;;21.50;45.20;;;;;;5048741;28;20031;-57
2022/11/02 07:06:00;;;;;;;6.90;1.25;;;21.50;45.20;;;;;;5049781;28;20056;-56
2022/11/02 07:08:26;;;;;;;3.22;1.00;;;21.50;45.20;;;;;;5045173;28;20036;-56
2022/11/02 07:10:52;;;;;;;2.67;1.00;;;21.50;45.10;;;;;;5050379;28;20025;-57
2022/11/02 07:13:19;;;;;;;3.42;1.10;;;21.50;45.10;;;;;;5049877;28;20025;-55
2022/11/02 07:15:45;;;;;;;6.07;0.98;;;21.50;45.10;;;;;;5050155;28;20035;-54
2022/11/02 07:18:12;;;;;;;4.45;1.20;;;21.50;45.00;;;;;;5048780;28;20140;-55
2022/11/02 07:20:38;;;;;;;4.43;1.35;;;21.50;45.10;;;;;;5050013;28;20032;-54
2022/11/02 07:23:04;;;;;;;4.07;1.35;;;21.50;45.10;;;;;;5048397;28;20068;-56
2022/11/02 07:25:32;;;;;;;4.38;1.35;;;21.50;45.10;;;;;;5050789;28;20025;-55
2022/11/02 07:27:59;;;;;;;3.58;1.15;;;21.50;45.10;;;;;;5052040;28;20036;-56
2022/11/02 07:30:30;;;;;;;4.95;1.30;;;21.50;45.20;;;;;;5054684;28;20039;-54
2022/11/02 07:32:56;;;;;;;3.92;1.20;;;21.50;45.20;;;;;;5054205;28;20091;-52
2022/11/02 07:35:22;;;;;;;4.30;1.20;;;21.50;45.20;;;;;;5054594;28;20077;-56
2022/11/02 07:37:59;;;;;;;5.38;1.50;;;21.50;45.20;;;;;;5049100;28;20036;-56
2022/11/02 07:40:25;;;;;;;5.22;1.60;;;21.50;45.20;;;;;;5048080;28;20033;-57
2022/11/02 07:42:52;;;;;;;6.03;1.65;;;21.50;45.20;;;;;;5045322;28;20060;-55
2022/11/02 07:45:23;;;;;;;3.90;1.48;;;21.50;45.20;;;;;;5041263;28;20032;-54
2022/11/02 07:47:51;;;;;;;4.35;1.50;;;21.50;45.20;;;;;;5048183;28;20094;-54
2022/11/02 07:50:20;;;;;;;4.78;1.20;;;21.50;45.90;;;;;;5046959;28;20021;-57
2022/11/02 07:52:50;;;;;;;5.15;1.42;;;21.50;45.20;;;;;;5049762;28;20048;-56
2022/11/02 07:55:19;;;;;;;5.13;1.63;;;21.50;45.30;;;;;;5048027;28;20041;-60
2022/11/02 07:58:06;;;;;;;4.82;1.52;;;21.50;45.40;;;;;;5045727;28;20036;-57
2022/11/02 08:00:37;;;;;;;3.88;1.30;;;21.50;45.30;;;;;;5054384;28;20098;-55
2022/11/02 08:03:05;;;;;;;5.20;1.38;;;21.50;45.30;;;;;;5053428;28;20036;-55
2022/11/02 08:05:34;;;;;;;5.30;1.65;;;21.50;45.40;;;;;;5054582;28;20440;-57
2022/11/02 08:08:03;;;;;;;5.30;1.60;;;21.50;45.30;;;;;;5053487;28;20108;-56
2022/11/02 08:10:30;;;;;;;2.92;1.08;;;21.50;45.30;;;;;;5074940;28;20042;-58
2022/11/02 08:12:56;;;;;;;5.85;1.63;;;21.60;45.40;;;;;;5052557;28;20357;-56
2022/11/02 08:15:23;;;;;;;5.13;1.45;;;21.50;45.40;;;;;;5049536;28;20503;-57
2022/11/02 08:18:00;;;;;;;4.90;1.67;;;21.50;45.40;;;;;;5051372;28;20400;-59
2022/11/02 08:20:25;;;;;;;6.88;1.85;;;21.50;45.60;;;;;;5049015;28;20376;-58
2022/11/02 08:22:51;;;;;;;5.40;1.73;;;21.50;45.80;;;;;;5057141;28;20032;-54
2022/11/02 08:25:17;;;;;;;6.07;1.63;;;21.50;45.90;;;;;;5057672;28;20092;-56
2022/11/02 08:27:43;;;;;;;6.32;1.52;;;21.50;45.90;;;;;;5054660;28;20055;-56
2022/11/02 08:30:10;;;;;;;3.95;1.38;;;21.60;46.00;;;;;;5046771;28;20052;-53
2022/11/02 08:32:35;;;;;;;5.15;1.80;;;21.60;45.80;;;;;;5055412;28;20040;-52
2022/11/02 08:35:01;;;;;;;5.10;1.83;;;21.60;45.70;;;;;;5057735;28;20024;-55
2022/11/02 08:37:27;;;;;;;6.00;1.70;;;21.60;45.70;;;;;;5058167;28;20407;-54
2022/11/02 08:39:53;;;;;;;6.18;1.45;;;21.60;45.60;;;;;;5056985;28;20035;-56
2022/11/02 08:42:19;;;;;;;6.60;1.65;;;21.60;45.60;;;;;;5057840;28;20033;-56
2022/11/02 08:44:45;;;;;;;5.57;1.85;;;21.60;45.50;;;;;;5058347;28;20033;-57
2022/11/02 08:47:11;;;;;;;3.97;1.50;;;21.60;45.40;;;;;;5056998;28;20021;-58
2022/11/02 08:49:36;;;;;;;5.55;1.73;;;21.60;45.40;;;;;;5049249;28;20399;-55
2022/11/02 08:52:02;;;;;;;5.47;1.55;;;21.60;45.40;;;;;;5052889;28;20346;-53
2022/11/02 08:54:28;;;;;;;5.00;1.70;;;21.60;45.40;;;;;;5049962;28;20087;-48
2022/11/02 08:56:54;;;;;;;4.88;1.88;;;21.60;45.90;;;;;;5051925;28;20075;-53
2022/11/02 08:59:20;;;;;;;5.38;1.60;;;21.60;45.20;;;;;;5051907;28;20028;-57
2022/11/02 09:01:45;;;;;;;4.35;1.50;;;21.60;45.20;;;;;;5051019;28;20358;-53
2022/11/02 09:04:11;;;;;;;4.22;1.42;;;21.60;45.10;;;;;;5051683;28;20032;-53
2022/11/02 09:06:37;;;;;;;5.30;1.60;;;21.60;45.10;;;;;;5051357;28;20063;-53
2022/11/02 09:09:03;;;;;;;6.13;1.52;;;21.60;45.10;;;;;;5050345;28;20048;-56
2022/11/02 09:11:29;;;;;;;4.05;1.38;;;21.60;45.00;;;;;;5051997;28;20452;-56
2022/11/02 09:13:55;;;;;;;5.30;1.70;;;21.60;45.00;;;;;;5057184;28;20037;-49
2022/11/02 09:16:20;;;;;;;5.32;1.83;;;21.60;45.00;;;;;;5056234;28;20090;-56
2022/11/02 09:18:46;;;;;;;6.13;1.83;;;21.70;45.10;;;;;;5064219;28;20062;-54
2022/11/02 09:21:12;;;;;;;5.95;1.77;;;21.60;45.00;;;;;;5077190;28;20055;-55
2022/11/02 09:23:38;;;;;;;5.28;1.77;;;21.60;45.00;;;;;;5077152;28;20124;-57
2022/11/02 09:26:04;;;;;;;4.95;1.63;;;21.60;45.00;;;;;;5076774;28;20032;-57
2022/11/02 09:28:29;;;;;;;5.47;1.83;;;21.60;45.00;;;;;;5067497;28;20348;-56
2022/11/02 09:30:56;;;;;;;5.75;2.10;;;21.60;45.00;;;;;;5057330;28;20171;-53
2022/11/02 09:33:21;;;;;;;5.55;1.52;;;21.60;45.00;;;;;;5056167;28;20036;-53
2022/11/02 09:35:48;;;;;;;5.50;1.50;;;21.70;45.00;;;;;;5056944;28;20025;-55
2022/11/02 09:38:17;;;;;;;4.18;1.58;;;21.70;45.00;;;;;;5050702;28;20033;-52
2022/11/02 09:40:52;;;;;;;6.93;1.75;;;21.70;45.00;;;;;;5036731;28;20033;-55
2022/11/02 09:43:27;;;;;;;4.93;1.60;;;21.70;45.00;;;;;;5036681;28;20029;-55
2022/11/02 09:45:55;;;;;;;;;;;21.70;45.00;;;;;;5037185;28;20413;-56
2022/11/02 09:48:34;;;;;;;3.63;1.15;;;21.70;45.00;;;;;;5047899;28;19904;-56
2022/11/02 09:51:07;;;;;;;4.20;1.73;;;21.70;45.00;;;;;;5055774;28;20052;-55
2022/11/02 09:53:47;;;;;;;5.53;1.60;;;21.70;45.00;;;;;;5056430;28;20037;-56
2022/11/02 09:56:18;;;;;;;6.97;1.80;;;21.70;45.00;;;;;;5036212;28;20065;-57
2022/11/02 09:58:59;;;;;;;5.65;1.42;;;21.70;45.00;;;;;;5042038;28;20037;-53
2022/11/02 10:01:49;;;;;;;3.28;1.40;;;21.70;44.90;;;;;;5036711;28;20477;-55
2022/11/02 10:04:31;;;;;;;5.32;1.40;;;21.80;45.00;;;;;;5055458;28;20028;-55
2022/11/02 10:07:38;;;;;;;3.78;1.50;;;21.80;45.00;;;;;;5056090;28;20037;-56
2022/11/02 10:10:27;;;;;;;4.18;1.40;;;21.80;45.00;;;;;;5068409;28;20425;-54
2022/11/02 10:13:20;;;;;;;4.50;1.42;;;21.80;45.00;;;;;;5051974;28;20041;-54
2022/11/02 10:15:58;;;;;;;3.90;1.30;;;21.80;44.90;;;;;;5058143;28;20111;-55
2022/11/02 10:18:28;;;;;;;5.40;1.30;;;21.80;44.90;;;;;;5058781;28;20364;-59
2022/11/02 10:21:10;;;;;;;7.20;1.80;;;21.80;45.00;;;;;;5054329;28;20033;-52
2022/11/02 10:23:40;;;;;;;3.65;1.42;;;21.90;45.10;;;;;;5055980;28;20040;-58
2022/11/02 10:26:17;;;;;;;4.40;1.23;;;21.90;45.10;;;;;;5054060;28;20052;-49
2022/11/02 10:28:48;;;;;;;8.02;1.20;;;21.90;45.10;;;;;;5053914;28;20108;-53
2022/11/02 10:31:27;;;;;;;2.95;1.20;;;21.90;45.10;;;;;;5055829;28;20346;-52
2022/11/02 10:33:56;;;;;;;4.97;1.20;;;21.90;45.00;;;;;;5054499;28;20042;-57
2022/11/02 10:36:33;;;;;;;5.85;1.23;;;21.90;44.90;;;;;;5054938;28;20064;-55
2022/11/02 10:39:22;;;;;;;3.03;1.40;;;21.90;44.70;;;;;;5054482;28;20025;-54
2022/11/02 10:42:06;;;;;;;4.07;1.30;;;22.00;44.60;;;;;;5055078;28;20037;-54
2022/11/02 10:45:00;;;;;;;3.92;1.35;;;21.90;44.50;;;;;;5055754;28;20044;-55
2022/11/02 10:47:43;;;;;;;4.10;1.15;;;21.90;44.30;;;;;;5054219;28;20420;-53
2022/11/02 10:50:44;;;;;;;5.40;1.20;;;22.00;44.30;;;;;;5035867;28;20055;-52
2022/11/02 10:53:16;;;;;;;4.00;1.10;;;22.00;44.30;;;;;;5022441;28;20049;-55
2022/11/02 10:56:02;;;;;;;4.35;1.27;;;22.00;44.20;;;;;;5049498;28;20040;-56
2022/11/02 10:58:32;;;;;;;3.75;1.10;;;22.00;44.10;;;;;;5046664;28;20029;-52
2022/11/02 11:01:06;;;;;;;4.00;1.17;;;22.00;44.00;;;;;;5035657;28;20049;-53
2022/11/02 11:03:32;;;;;;;3.38;0.80;;;22.00;44.00;;;;;;5046052;28;20043;-52
2022/11/02 11:06:01;;;;;;;4.38;1.15;;;22.00;44.00;;;;;;5053012;28;20029;-56
2022/11/02 11:08:28;;;;;;;3.72;1.30;;;22.00;44.20;;;;;;5053284;28;20032;-57
2022/11/02 11:10:54;;;;;;;5.70;1.38;;;22.00;44.20;;;;;;5054050;28;20459;-52
2022/11/02 11:13:22;;;;;;;3.22;1.00;;;22.00;44.20;;;;;;5053533;28;20116;-57
2022/11/02 11:15:51;;;;;;;3.00;1.00;;;22.00;44.20;;;;;;5052238;28;20025;-54
2022/11/02 11:18:20;;;;;;;3.90;1.30;;;22.00;44.10;;;;;;5057482;28;20048;-56
2022/11/02 11:20:47;;;;;;;4.88;1.33;;;22.00;44.10;;;;;;5053911;28;20056;-50
2022/11/02 11:23:23;;;;;;;3.88;1.15;;;22.00;44.00;;;;;;5050670;28;20445;-55
2022/11/02 11:26:10;;;;;;;4.90;1.50;;;22.00;44.00;;;;;;5052492;28;20433;-54
2022/11/02 11:28:51;;;;;;;4.72;1.20;;;22.00;43.90;;;;;;5034580;28;20029;-53
2022/11/02 11:31:17;;;;;;;3.90;1.17;;;22.00;44.00;;;;;;5046197;28;20125;-58
2022/11/02 11:33:52;;;;;;;3.95;1.20;;;22.00;44.00;;;;;;5054609;28;20232;-55
2022/11/02 11:36:22;;;;;;;3.88;1.25;;;22.00;44.00;;;;;;5052685;28;20103;-58
2022/11/02 11:38:49;;;;;;;4.97;1.33;;;22.00;44.00;;;;;;5045111;28;20029;-56
2022/11/02 11:41:16;;;;;;;5.50;1.50;;;22.10;44.10;;;;;;5052179;28;20028;-55
2022/11/02 11:43:44;;;;;;;6.97;1.38;;;22.00;44.00;;;;;;5050027;28;20108;-58
2022/11/02 11:46:12;;;;;;;5.43;1.40;;;22.10;44.20;;;;;;5048534;28;20029;-56
2022/11/02 11:48:41;;;;;;;4.95;0.95;;;22.10;44.30;;;;;;5050662;28;20040;-55
2022/11/02 11:51:34;;;;;;;6.85;1.55;;;22.10;44.30;;;;;;5051868;28;20105;-59
2022/11/02 11:54:29;;;;;;;4.40;1.33;;;22.10;44.30;;;;;;5051528;28;20029;-53
2022/11/02 11:57:16;;;;;;;4.72;1.55;;;22.10;44.30;;;;;;5049206;28;20025;-49
2022/11/02 11:59:42;;;;;;;5.32;1.00;;;22.20;44.40;;;;;;5052627;28;20452;-50
2022/11/02 12:02:23;;;;;;;4.82;1.30;;;22.20;44.40;;;;;;5052518;28;20026;-53
2022/11/02 12:04:49;;;;;;;3.63;1.00;;;22.20;44.30;;;;;;5052777;28;20124;-47
2022/11/02 12:07:42;;;;;;;4.15;1.20;;;22.20;44.30;;;;;;5052988;28;20044;-49
2022/11/02 12:10:46;;;;;;;4.50;1.45;;;22.20;44.20;;;;;;5050212;28;20320;-51
2022/11/02 12:13:36;;;;;;;4.10;1.30;;;22.20;44.10;;;;;;5000299;28;20094;-57
2022/11/02 12:16:39;;;;;;;3.72;1.20;;;22.20;44.00;;;;;;5052103;28;20033;-55
2022/11/02 12:19:29;;;;;;;3.97;1.25;;;22.20;43.80;;;;;;5050923;28;20128;-56
2022/11/02 12:22:04;;;;;;;5.20;1.10;;;22.20;43.70;;;;;;5020920;28;20088;-52
2022/11/02 12:24:55;;;;;;;3.40;1.23;;;22.20;43.60;;;;;;5045210;28;20029;-56
2022/11/02 12:27:42;;;;;;;3.05;1.00;;;22.20;43.50;;;;;;5048190;28;20029;-49
2022/11/02 12:30:21;;;;;;;3.55;0.80;;;22.30;43.40;;;;;;5054055;28;20029;-55
2022/11/02 12:32:56;;;;;;;5.47;1.30;;;22.30;43.30;;;;;;5044565;28;20388;-55
2022/11/02 12:35:51;;;;;;;3.38;1.08;;;22.30;43.10;;;;;;5046177;28;20021;-56
2022/11/02 12:38:35;;;;;;;;;;;22.30;42.90;;;;;;4967208;28;20046;-52
2022/11/02 12:41:08;;;;;;;4.10;1.50;;;22.30;42.90;;;;;;5048320;28;19963;-55
2022/11/02 12:43:41;;;;;;;2.72;0.85;;;22.30;42.80;;;;;;5048471;28;20116;-58
2022/11/02 12:46:10;;;;;;;4.90;1.10;;;22.30;42.70;;;;;;5048079;28;20067;-58
2022/11/02 12:48:41;;;;;;;4.32;1.20;;;22.30;42.60;;;;;;5048138;28;20359;-56
2022/11/02 12:51:20;;;;;;;3.92;1.02;;;22.30;42.50;;;;;;5034206;28;20449;-55
2022/11/02 12:54:10;;;;;;;3.35;0.95;;;22.30;42.40;;;;;;5047725;28;20043;-53
2022/11/02 12:56:48;;;;;;;5.30;1.27;;;22.30;42.30;;;;;;5048480;28;20025;-56
2022/11/02 12:59:23;;;;;;;5.50;1.27;;;22.30;42.10;;;;;;5048472;28;20033;-53
2022/11/02 13:01:55;;;;;;;3.40;1.23;;;22.30;42.00;;;;;;5048908;28;20386;-50
2022/11/02 13:04:57;;;;;;;4.90;1.20;;;22.30;41.90;;;;;;5048658;28;20029;-58
2022/11/02 13:07:35;;;;;;;3.50;1.10;;;22.30;41.70;;;;;;5019759;28;20055;-57
2022/11/02 13:10:04;;;;;;;4.70;1.45;;;22.30;41.60;;;;;;5050417;28;20037;-56
2022/11/02 13:12:33;;;;;;;3.03;1.10;;;22.30;41.60;;;;;;5050925;28;20142;-57
2022/11/02 13:15:01;;;;;;;5.50;1.40;;;22.30;41.50;;;;;;5048535;28;20021;-55
2022/11/02 13:17:51;;;;;;;3.30;1.10;;;22.30;41.50;;;;;;5050369;28;20041;-57
2022/11/02 13:20:20;;;;;;;4.03;1.30;;;22.30;41.40;;;;;;5051954;28;20086;-56
2022/11/02 13:22:59;;;;;;;3.72;1.10;;;22.30;41.40;;;;;;5051598;28;20029;-55
2022/11/02 13:25:31;;;;;;;7.75;1.40;;;22.30;41.30;;;;;;5042107;28;20443;-55
2022/11/02 13:28:04;;;;;;;5.40;1.15;;;22.30;41.30;;;;;;5047668;28;20044;-55